createdAt,value
2022-10-30T00:01:28.185Z,78.81
2022-10-30T00:04:30.135Z,78.89
2022-10-30T00:07:31.935Z,78.62
2022-10-30T00:10:35.305Z,79.16
2022-10-30T00:13:37.741Z,78.95
2022-10-30T00:16:40.571Z,79.00
2022-10-30T00:19:42.241Z,78.80
2022-10-30T00:22:43.772Z,78.84
2022-10-30T00:25:46.872Z,78.88
2022-10-30T00:28:49.457Z,78.80
2022-10-30T00:31:51.153Z,78.80
2022-10-30T00:34:52.674Z,78.42
2022-10-30T00:37:54.575Z,77.70
2022-10-30T00:40:58.102Z,77.30
2022-10-30T00:43:59.695Z,77.12
2022-10-30T00:47:05.660Z,77.46
2022-10-30T00:50:09.819Z,77.55
2022-10-30T00:53:13.582Z,77.32
2022-10-30T00:56:18.582Z,77.13
2022-10-30T00:59:23.196Z,77.47
2022-10-30T01:02:25.501Z,77.23
2022-10-30T01:05:28.828Z,77.21
2022-10-30T01:08:30.865Z,76.81
2022-10-30T01:11:34.047Z,76.83
2022-10-30T01:14:37.267Z,76.58
2022-10-30T01:17:51.857Z,76.63
2022-10-30T01:21:04.091Z,76.29
2022-10-30T01:24:10.889Z,76.35
2022-10-30T01:27:27.278Z,76.08
2022-10-30T01:30:35.941Z,76.01
2022-10-30T01:33:44.615Z,76.02
2022-10-30T01:36:49.759Z,75.32
2022-10-30T01:39:51.673Z,75.35
2022-10-30T01:42:55.674Z,75.20
2022-10-30T01:46:09.863Z,75.22
2022-10-30T01:49:28.537Z,75.43
2022-10-30T01:52:39.712Z,75.64
2022-10-30T01:55:44.069Z,75.87
2022-10-30T01:58:51.698Z,76.36
2022-10-30T02:01:53.595Z,77.00
2022-10-30T02:04:55.438Z,77.48
2022-10-30T02:07:57.284Z,77.73
2022-10-30T02:11:00.313Z,78.02
2022-10-30T02:14:04.839Z,78.35
2022-10-30T02:17:07.457Z,78.59
2022-10-30T02:20:15.006Z,78.76
2022-10-30T02:23:19.071Z,78.70
2022-10-30T02:26:20.848Z,78.38
2022-10-30T02:29:22.533Z,78.33
2022-10-30T02:32:24.264Z,78.55
2022-10-30T02:35:31.686Z,78.24
2022-10-30T02:38:33.451Z,78.28
2022-10-30T02:41:43.007Z,78.46
2022-10-30T02:44:44.619Z,78.63
2022-10-30T02:47:46.281Z,78.77
2022-10-30T02:50:49.474Z,78.61
2022-10-30T02:53:51.097Z,78.83
2022-10-30T02:56:52.789Z,78.90
2022-10-30T02:59:54.452Z,78.81
2022-10-30T03:02:56.018Z,79.29
2022-10-30T03:06:02.283Z,79.08
2022-10-30T03:09:04.264Z,79.20
2022-10-30T03:12:05.991Z,79.23
2022-10-30T03:15:08.551Z,79.47
2022-10-30T03:18:10.268Z,79.69
2022-10-30T03:21:14.118Z,80.12
2022-10-30T03:24:15.801Z,80.40
2022-10-30T03:27:17.695Z,80.55
2022-10-30T03:30:19.294Z,80.85
2022-10-30T03:33:20.820Z,81.11
2022-10-30T03:36:27.489Z,81.37
2022-10-30T03:39:29.167Z,81.68
2022-10-30T03:42:32.987Z,81.97
2022-10-30T03:45:37.488Z,82.41
2022-10-30T03:48:39.105Z,82.52
2022-10-30T03:51:42.056Z,82.76
2022-10-30T03:54:43.585Z,83.26
2022-10-30T03:57:45.153Z,83.69
2022-10-30T04:00:46.708Z,83.73
2022-10-30T04:03:48.267Z,84.30
2022-10-30T04:06:51.124Z,84.40
2022-10-30T04:09:52.768Z,84.65
2022-10-30T04:13:00.234Z,84.81
2022-10-30T04:16:02.092Z,85.08
2022-10-30T04:19:03.839Z,85.28
2022-10-30T04:22:08.307Z,85.37
2022-10-30T04:25:12.940Z,85.15
2022-10-30T04:28:15.190Z,85.15
2022-10-30T04:31:16.749Z,84.92
2022-10-30T04:34:18.499Z,84.68
2022-10-30T04:37:21.622Z,84.38
2022-10-30T04:40:23.798Z,84.79
2022-10-30T04:43:25.509Z,84.93
2022-10-30T04:46:27.164Z,85.08
2022-10-30T04:49:28.683Z,85.43
2022-10-30T04:52:31.687Z,85.42
2022-10-30T04:55:34.749Z,85.17
2022-10-30T04:58:36.366Z,84.94
2022-10-30T05:01:38.111Z,85.09
2022-10-30T05:04:40.000Z,84.89
2022-10-30T05:07:43.038Z,84.34
2022-10-30T05:10:44.788Z,84.38
2022-10-30T05:13:46.440Z,84.55
2022-10-30T05:16:48.217Z,84.67
2022-10-30T05:19:49.817Z,84.94
2022-10-30T05:22:56.739Z,84.87
2022-10-30T05:26:00.215Z,85.14
2022-10-30T05:29:02.186Z,85.35
2022-10-30T05:32:04.279Z,85.50
2022-10-30T05:35:06.263Z,85.77
2022-10-30T05:38:10.435Z,86.08
2022-10-30T05:41:12.121Z,86.15
2022-10-30T05:44:13.690Z,86.32
2022-10-30T05:47:16.333Z,86.35
2022-10-30T05:50:18.017Z,86.23
2022-10-30T05:53:21.141Z,86.04
2022-10-30T05:56:22.695Z,85.95
2022-10-30T05:59:24.222Z,85.60
2022-10-30T06:02:25.914Z,85.41
2022-10-30T06:05:27.539Z,85.46
2022-10-30T06:08:30.446Z,85.40
2022-10-30T06:11:32.201Z,85.76
2022-10-30T06:14:33.852Z,85.90
2022-10-30T06:17:35.400Z,86.08
2022-10-30T06:20:37.164Z,86.34
2022-10-30T06:23:40.371Z,85.90
2022-10-30T06:26:42.023Z,85.68
2022-10-30T06:29:43.688Z,85.37
2022-10-30T06:32:48.341Z,85.24
2022-10-30T06:35:50.211Z,84.91
2022-10-30T06:38:53.175Z,85.06
2022-10-30T06:41:54.796Z,85.23
2022-10-30T06:44:56.537Z,85.39
2022-10-30T06:47:58.383Z,85.58
2022-10-30T06:51:02.925Z,85.54
2022-10-30T06:54:06.931Z,85.67
2022-10-30T06:57:08.573Z,85.88
2022-10-30T07:00:10.764Z,86.07
2022-10-30T07:03:12.422Z,86.11
2022-10-30T07:06:13.994Z,85.91
2022-10-30T07:09:17.346Z,86.01
2022-10-30T07:12:19.004Z,85.85
2022-10-30T07:15:20.709Z,85.90
2022-10-30T07:18:22.456Z,86.05
2022-10-30T07:21:26.120Z,86.51
2022-10-30T07:24:32.072Z,86.88
2022-10-30T07:27:41.316Z,87.24
2022-10-30T07:30:43.052Z,87.71
2022-10-30T07:33:44.758Z,88.12
2022-10-30T07:36:47.111Z,88.08
2022-10-30T07:39:50.222Z,88.33
2022-10-30T07:42:55.977Z,88.33
2022-10-30T07:45:57.952Z,88.66
2022-10-30T07:48:59.539Z,88.90
2022-10-30T07:52:01.204Z,88.93
2022-10-30T07:55:04.874Z,88.76
2022-10-30T07:58:06.420Z,88.99
2022-10-30T08:01:08.051Z,88.70
2022-10-30T08:04:11.295Z,88.81
2022-10-30T08:07:15.184Z,88.64
2022-10-30T08:10:18.186Z,88.04
2022-10-30T08:13:23.221Z,88.06
2022-10-30T08:16:25.503Z,88.18
2022-10-30T08:19:27.159Z,88.02
2022-10-30T08:22:28.642Z,86.83
2022-10-30T08:25:31.911Z,86.76
2022-10-30T08:28:33.774Z,86.77
2022-10-30T08:31:35.242Z,85.85
2022-10-30T08:34:37.084Z,84.72
2022-10-30T08:37:38.590Z,84.24
2022-10-30T08:40:41.837Z,83.88
2022-10-30T08:43:43.442Z,84.62
2022-10-30T08:46:45.132Z,85.19
2022-10-30T08:49:46.822Z,84.16
2022-10-30T08:52:50.892Z,84.29
2022-10-30T08:55:57.212Z,84.45
2022-10-30T08:59:01.976Z,84.55
2022-10-30T09:02:03.664Z,84.63
2022-10-30T09:08:12.208Z,82.85
2022-10-30T09:11:17.496Z,83.05
2022-10-30T09:14:19.381Z,83.11
2022-10-30T09:17:21.240Z,82.34
2022-10-30T09:20:22.969Z,79.92
2022-10-30T09:23:24.949Z,79.62
2022-10-30T09:26:29.034Z,79.05
2022-10-30T09:29:31.743Z,79.34
2022-10-30T09:32:33.464Z,79.27
2022-10-30T09:35:35.853Z,78.15
2022-10-30T09:38:37.486Z,78.46
2022-10-30T09:41:53.892Z,77.79
2022-10-30T09:48:53.544Z,76.36
2022-10-30T09:52:04.299Z,76.24
2022-10-30T09:55:14.700Z,76.09
2022-10-30T09:58:23.599Z,76.15
2022-10-30T10:01:30.017Z,75.71
2022-10-30T10:04:35.335Z,75.22
2022-10-30T10:07:37.890Z,75.21
2022-10-30T10:10:41.221Z,74.57
2022-10-30T10:13:46.222Z,74.50
2022-10-30T10:16:52.771Z,74.96
2022-10-30T10:19:59.458Z,74.24
2022-10-30T10:23:05.216Z,74.44
2022-10-30T10:26:12.033Z,74.75
2022-10-30T10:29:21.915Z,74.75
2022-10-30T10:32:41.801Z,75.07
2022-10-30T10:35:59.088Z,75.56
2022-10-30T10:39:08.507Z,74.96
2022-10-30T10:42:17.559Z,75.63
2022-10-30T10:45:24.402Z,75.47
2022-10-30T10:48:42.817Z,74.91
2022-10-30T10:51:48.669Z,75.28
2022-10-30T10:54:52.589Z,75.34
2022-10-30T10:57:56.818Z,75.27
2022-10-30T11:00:59.625Z,75.42
2022-10-30T11:04:04.096Z,75.24
2022-10-30T11:07:22.150Z,74.34
2022-10-30T11:10:25.867Z,74.19
2022-10-30T11:13:29.281Z,75.19
2022-10-30T11:16:39.540Z,74.75
2022-10-30T11:19:47.798Z,75.02
2022-10-30T11:22:52.871Z,74.42
2022-10-30T11:25:57.806Z,74.93
2022-10-30T11:29:03.355Z,74.02
2022-10-30T11:32:05.809Z,74.30
2022-10-30T11:35:13.943Z,74.92
2022-10-30T11:38:19.375Z,74.87
2022-10-30T11:41:21.268Z,74.92
2022-10-30T11:44:23.736Z,75.79
2022-10-30T11:47:29.869Z,75.37
2022-10-30T11:50:33.093Z,75.47
2022-10-30T11:53:38.539Z,74.94
2022-10-30T11:56:46.576Z,74.10
2022-10-30T11:59:48.741Z,74.88
2022-10-30T12:02:54.741Z,74.58
2022-10-30T12:06:09.272Z,74.72
2022-10-30T12:09:11.904Z,75.13
2022-10-30T12:12:21.505Z,75.65
2022-10-30T12:15:27.422Z,75.78
2022-10-30T12:21:36.323Z,74.14
2022-10-30T12:24:39.775Z,74.50
2022-10-30T12:27:41.406Z,75.19
2022-10-30T12:30:47.801Z,74.64
2022-10-30T12:33:53.386Z,74.31
2022-10-30T12:37:00.377Z,73.58
2022-10-30T12:40:04.382Z,74.01
2022-10-30T12:43:15.176Z,73.32
2022-10-30T12:46:23.448Z,73.67
2022-10-30T12:49:28.172Z,73.92
2022-10-30T12:52:37.415Z,73.82
2022-10-30T12:55:41.346Z,73.75
2022-10-30T12:58:46.943Z,73.50
2022-10-30T13:01:52.074Z,73.15
2022-10-30T13:04:58.141Z,73.09
2022-10-30T13:08:14.377Z,72.63
2022-10-30T13:11:22.065Z,72.49
2022-10-30T13:14:27.818Z,71.33
2022-10-30T13:17:29.917Z,71.62
2022-10-30T13:20:31.954Z,71.30
2022-10-30T13:23:40.730Z,71.45
2022-10-30T13:26:49.041Z,71.08
2022-10-30T13:29:54.416Z,70.60
2022-10-30T13:33:03.368Z,70.58
2022-10-30T13:36:11.332Z,70.93
2022-10-30T13:39:19.366Z,70.78
2022-10-30T13:42:37.008Z,70.75
2022-10-30T13:45:45.232Z,70.30
2022-10-30T13:49:09.091Z,70.89
2022-10-30T13:52:13.587Z,71.13
2022-10-30T13:55:19.943Z,71.52
2022-10-30T13:58:26.006Z,72.19
2022-10-30T14:01:34.057Z,71.75
2022-10-30T14:04:38.984Z,72.57
2022-10-30T14:07:42.829Z,72.96
2022-10-30T14:10:47.842Z,73.27
2022-10-30T14:13:54.332Z,74.09
2022-10-30T14:17:13.368Z,74.22
2022-10-30T14:20:22.550Z,74.46
2022-10-30T14:23:24.932Z,74.82
2022-10-30T14:26:27.883Z,75.11
2022-10-30T14:29:31.788Z,75.88
2022-10-30T14:32:41.370Z,74.60
2022-10-30T14:35:42.957Z,74.66
2022-10-30T14:38:52.919Z,74.65
2022-10-30T14:42:11.428Z,75.21
2022-10-30T14:45:17.072Z,75.21
2022-10-30T14:48:22.421Z,75.27
2022-10-30T14:51:28.947Z,75.35
2022-10-30T14:54:37.337Z,75.92
2022-10-30T14:57:48.298Z,75.92
2022-10-30T15:00:50.415Z,76.21
2022-10-30T15:03:58.459Z,76.69
2022-10-30T15:07:08.371Z,77.05
2022-10-30T15:10:16.328Z,77.42
2022-10-30T15:13:22.750Z,77.19
2022-10-30T15:16:26.594Z,77.27
2022-10-30T15:19:30.201Z,77.70
2022-10-30T15:22:32.828Z,78.17
2022-10-30T15:25:36.949Z,78.52
2022-10-30T15:28:40.100Z,78.65
2022-10-30T15:31:41.584Z,78.87
2022-10-30T15:34:53.181Z,79.04
2022-10-30T15:37:58.677Z,79.51
2022-10-30T15:41:02.281Z,79.75
2022-10-30T15:44:05.574Z,80.03
2022-10-30T15:47:12.670Z,80.25
2022-10-30T15:50:15.136Z,80.46
2022-10-30T15:53:18.299Z,80.60
2022-10-30T15:56:22.809Z,81.03
2022-10-30T15:59:27.386Z,81.43
2022-10-30T16:02:28.953Z,81.93
2022-10-30T16:05:34.508Z,82.11
2022-10-30T16:08:42.912Z,82.11
2022-10-30T16:11:45.041Z,82.10
2022-10-30T16:14:47.885Z,82.17
2022-10-30T16:17:53.099Z,82.07
2022-10-30T16:21:02.367Z,82.12
2022-10-30T16:24:05.274Z,82.28
2022-10-30T16:27:08.058Z,82.12
2022-10-30T16:30:13.900Z,82.33
2022-10-30T16:33:16.377Z,82.36
2022-10-30T16:36:18.373Z,82.43
2022-10-30T16:39:21.334Z,82.64
2022-10-30T16:42:24.131Z,82.73
2022-10-30T16:45:40.594Z,82.88
2022-10-30T16:48:45.563Z,83.30
2022-10-30T16:51:47.909Z,83.21
2022-10-30T16:54:53.368Z,83.23
2022-10-30T16:57:56.681Z,83.05
2022-10-30T17:01:02.341Z,82.74
2022-10-30T17:04:05.744Z,82.83
2022-10-30T17:07:16.458Z,82.50
2022-10-30T17:10:33.060Z,82.32
2022-10-30T17:13:35.614Z,82.47
2022-10-30T17:16:39.511Z,82.34
2022-10-30T17:19:47.422Z,82.57
2022-10-30T17:22:51.108Z,82.70
2022-10-30T17:25:52.749Z,82.97
2022-10-30T17:28:56.479Z,83.23
2022-10-30T17:32:03.551Z,83.23
2022-10-30T17:35:12.652Z,83.14
2022-10-30T17:38:14.360Z,83.01
2022-10-30T17:41:16.828Z,83.03
2022-10-30T17:44:19.799Z,83.22
2022-10-30T17:47:21.612Z,83.33
2022-10-30T17:50:24.555Z,83.14
2022-10-30T17:53:26.681Z,83.02
2022-10-30T17:56:30.042Z,83.11
2022-10-30T17:59:31.849Z,83.16
2022-10-30T18:02:33.354Z,83.18
2022-10-30T18:05:36.994Z,83.40
2022-10-30T18:08:38.664Z,83.40
2022-10-30T18:11:40.201Z,83.30
2022-10-30T18:14:43.119Z,83.52
2022-10-30T18:17:44.962Z,83.66
2022-10-30T18:20:47.996Z,83.85
2022-10-30T18:23:52.709Z,84.03
2022-10-30T18:26:55.243Z,83.89
2022-10-30T18:29:56.763Z,83.89
2022-10-30T18:32:58.828Z,84.13
2022-10-30T18:36:02.000Z,84.29
2022-10-30T18:39:03.486Z,84.16
2022-10-30T18:42:05.998Z,84.26
2022-10-30T18:45:25.617Z,84.31
2022-10-30T18:48:27.295Z,84.43
2022-10-30T18:51:30.188Z,84.63
2022-10-30T18:54:32.027Z,84.70
2022-10-30T18:57:33.539Z,84.72
2022-10-30T19:00:51.302Z,84.59
2022-10-30T19:04:00.954Z,85.03
2022-10-30T19:07:04.245Z,85.01
2022-10-30T19:10:06.786Z,85.08
2022-10-30T19:13:12.859Z,84.87
2022-10-30T19:16:16.026Z,85.08
2022-10-30T19:19:18.032Z,84.87
2022-10-30T19:22:21.519Z,84.56
2022-10-30T19:25:24.273Z,84.71
2022-10-30T19:28:26.020Z,84.80
2022-10-30T19:31:27.525Z,84.78
2022-10-30T19:34:28.988Z,84.53
2022-10-30T19:37:32.036Z,84.44
2022-10-30T19:40:34.457Z,84.85
2022-10-30T19:43:37.858Z,84.94
2022-10-30T19:46:39.935Z,84.87
2022-10-30T19:49:41.431Z,84.59
2022-10-30T19:52:44.334Z,84.42
2022-10-30T19:55:47.088Z,84.06
2022-10-30T19:58:48.976Z,83.70
2022-10-30T20:01:50.722Z,82.86
2022-10-30T20:04:52.343Z,82.77
2022-10-30T20:08:02.136Z,82.69
2022-10-30T20:11:03.941Z,82.44
2022-10-30T20:14:05.453Z,82.35
2022-10-30T20:17:07.177Z,82.38
2022-10-30T20:20:12.814Z,82.58
2022-10-30T20:23:15.807Z,82.88
2022-10-30T20:26:23.086Z,82.90
2022-10-30T20:29:24.947Z,82.95
2022-10-30T20:32:26.773Z,82.94
2022-10-30T20:35:36.046Z,82.85
2022-10-30T20:38:40.303Z,83.32
2022-10-30T20:41:42.784Z,83.43
2022-10-30T20:44:44.900Z,82.79
2022-10-30T20:47:47.711Z,82.30
2022-10-30T20:50:51.684Z,81.77
2022-10-30T20:53:54.980Z,81.48
2022-10-30T20:56:57.479Z,80.96
2022-10-30T20:59:59.050Z,80.56
2022-10-30T21:03:01.935Z,80.44
2022-10-30T21:06:03.666Z,80.29
2022-10-30T21:09:06.594Z,80.48
2022-10-30T21:12:08.238Z,80.81
2022-10-30T21:15:09.998Z,81.20
2022-10-30T21:18:15.481Z,81.62
2022-10-30T21:21:21.526Z,82.18
2022-10-30T21:24:28.227Z,82.40
2022-10-30T21:27:29.620Z,82.49
2022-10-30T21:30:31.238Z,81.96
2022-10-30T21:33:33.898Z,81.51
2022-10-30T21:36:35.449Z,80.24
2022-10-30T21:39:38.423Z,79.63
2022-10-30T21:42:40.988Z,78.60
2022-10-30T21:45:42.448Z,78.16
2022-10-30T21:48:43.991Z,77.84
2022-10-30T21:51:46.923Z,76.99
2022-10-30T21:54:50.063Z,76.81
2022-10-30T21:57:51.584Z,76.35
2022-10-30T22:00:53.157Z,76.21
2022-10-30T22:03:54.959Z,76.23
2022-10-30T22:06:56.404Z,76.52
2022-10-30T22:09:59.636Z,76.52
2022-10-30T22:13:01.221Z,76.47
2022-10-30T22:16:07.095Z,76.38
2022-10-30T22:19:10.143Z,76.54
2022-10-30T22:22:11.684Z,76.80
2022-10-30T22:25:14.899Z,76.94
2022-10-30T22:31:24.655Z,77.02
2022-10-30T22:34:26.167Z,76.80
2022-10-30T22:37:27.786Z,76.64
2022-10-30T22:40:30.614Z,76.56
2022-10-30T22:43:32.139Z,76.48
2022-10-30T22:46:33.810Z,76.24
2022-10-30T22:49:35.220Z,76.50
2022-10-30T22:52:41.443Z,76.75
2022-10-30T22:55:44.346Z,76.86
2022-10-30T22:58:47.131Z,77.00
2022-10-30T23:01:48.844Z,77.40
2022-10-30T23:04:52.048Z,77.73
2022-10-30T23:07:53.703Z,77.97
2022-10-30T23:10:57.112Z,78.45
2022-10-30T23:13:58.905Z,78.54
2022-10-30T23:17:00.547Z,78.91
2022-10-30T23:20:02.171Z,79.32
2022-10-30T23:23:04.076Z,79.77
2022-10-30T23:26:08.087Z,80.06
2022-10-30T23:29:09.707Z,80.21
2022-10-30T23:32:13.144Z,80.41
2022-10-30T23:35:14.787Z,80.80
2022-10-30T23:38:16.360Z,81.49
2022-10-30T23:41:19.375Z,81.54
2022-10-30T23:44:21.157Z,82.39
2022-10-30T23:47:23.179Z,82.48
2022-10-30T23:50:24.894Z,82.59
2022-10-30T23:53:27.232Z,83.13
2022-10-30T23:56:30.763Z,83.44
2022-10-30T23:59:32.997Z,83.73
